Time;durP1;ratioP1;P1;durP2;ratioP2;P2;SDS_P1;SDS_P2;PMS_P1;PMS_P2;Temp;Humidity;BMP_temperature;BMP_pressure;BME280_temperature;BME280_humidity;BME280_pressure;Samples;Min_cycle;Max_cycle;Signal;HPM_P1;HPM_P2
2023/03/09 00:03:00;;;;;;;12.77;4.38;;;14.70;65.50;;;;;;6245874;28;20112;-72
2023/03/09 00:06:01;;;;;;;8.02;4.07;;;14.70;65.40;;;;;;6228357;28;20033;-72
2023/03/09 00:09:03;;;;;;;11.32;5.72;;;14.70;65.40;;;;;;6248334;28;20041;-72
2023/03/09 00:12:05;;;;;;;11.30;5.32;;;14.70;65.30;;;;;;6246438;28;20445;-72
2023/03/09 00:15:06;;;;;;;10.15;4.95;;;14.70;65.30;;;;;;6246207;28;20030;-72
2023/03/09 00:18:08;;;;;;;13.32;5.35;;;14.60;64.90;;;;;;6245088;28;20025;-72
2023/03/09 00:21:14;;;;;;;14.05;5.10;;;14.60;65.50;;;;;;6246228;28;20061;-71
2023/03/09 00:24:18;;;;;;;13.60;5.30;;;14.50;65.70;;;;;;6229748;28;20100;-71
2023/03/09 00:27:19;;;;;;;12.77;5.82;;;14.40;65.80;;;;;;6231867;28;20033;-71
2023/03/09 00:30:20;;;;;;;9.25;5.25;;;14.40;66.10;;;;;;6235704;28;20052;-71
2023/03/09 00:33:21;;;;;;;11.38;5.00;;;14.30;66.40;;;;;;6228478;28;20143;-72
2023/03/09 00:36:22;;;;;;;14.75;5.07;;;14.20;66.50;;;;;;6228019;28;20037;-72
2023/03/09 00:39:24;;;;;;;20.05;5.10;;;14.20;66.70;;;;;;6245516;28;20040;-73
2023/03/09 00:42:25;;;;;;;8.98;4.80;;;14.20;66.90;;;;;;6227833;28;20437;-71
2023/03/09 00:45:26;;;;;;;12.45;5.18;;;14.10;66.90;;;;;;6245620;28;20032;-72
2023/03/09 00:48:27;;;;;;;11.52;5.60;;;14.00;66.90;;;;;;6221088;28;20056;-71
2023/03/09 00:51:28;;;;;;;11.07;5.78;;;14.00;67.10;;;;;;6227928;28;20072;-71
2023/03/09 00:54:29;;;;;;;15.77;6.30;;;14.00;67.20;;;;;;6227178;28;20040;-72
2023/03/09 00:57:30;;;;;;;9.82;4.80;;;14.00;67.40;;;;;;6226868;28;20029;-71
2023/03/09 01:00:33;;;;;;;11.20;5.57;;;13.90;67.40;;;;;;6244873;28;20437;-71
2023/03/09 01:03:36;;;;;;;13.35;5.00;;;13.90;67.50;;;;;;6243480;28;20045;-72
2023/03/09 01:06:37;;;;;;;10.45;5.72;;;13.90;67.60;;;;;;6227054;28;20148;-71
2023/03/09 01:09:38;;;;;;;14.32;5.57;;;13.90;67.50;;;;;;6242637;28;20351;-71
2023/03/09 01:12:40;;;;;;;12.82;6.32;;;13.90;67.70;;;;;;6226872;28;20048;-71
2023/03/09 01:15:41;;;;;;;9.02;4.85;;;13.90;67.80;;;;;;6257602;28;20037;-71
2023/03/09 01:18:42;;;;;;;14.63;6.13;;;13.90;67.90;;;;;;6259143;28;20048;-71
2023/03/09 01:21:43;;;;;;;12.75;5.57;;;13.90;68.00;;;;;;6227308;28;20164;-73
2023/03/09 01:24:44;;;;;;;12.00;5.97;;;13.80;67.90;;;;;;6226724;28;20028;-72
2023/03/09 01:27:45;;;;;;;21.38;6.95;;;13.80;67.90;;;;;;6226434;28;20485;-71
2023/03/09 01:30:46;;;;;;;10.80;5.90;;;13.80;67.90;;;;;;6226552;28;20033;-71
2023/03/09 01:33:48;;;;;;;10.27;5.53;;;13.70;67.90;;;;;;6244316;28;20033;-72
2023/03/09 01:36:49;;;;;;;10.85;6.20;;;13.70;68.00;;;;;;6244610;28;20025;-72
2023/03/09 01:39:50;;;;;;;11.93;5.97;;;13.70;68.10;;;;;;6226709;28;20026;-71
2023/03/09 01:42:56;;;;;;;9.50;5.32;;;13.70;68.20;;;;;;6244165;28;20715;-70
2023/03/09 01:46:23;;;;;;;12.50;5.97;;;13.60;68.20;;;;;;6226197;28;20032;-72
2023/03/09 01:49:48;;;;;;;12.60;5.70;;;13.60;68.40;;;;;;6209050;28;20107;-71
2023/03/09 01:52:51;;;;;;;8.30;4.00;;;13.50;68.50;;;;;;6239196;28;20036;-71
2023/03/09 01:55:53;;;;;;;10.10;5.10;;;13.50;68.60;;;;;;6225506;28;20124;-71
2023/03/09 01:58:55;;;;;;;8.77;5.03;;;13.80;69.00;;;;;;6225100;28;20033;-71
2023/03/09 02:01:56;;;;;;;8.55;4.15;;;13.50;68.90;;;;;;6242903;28;20026;-71
2023/03/09 02:05:03;;;;;;;13.65;5.25;;;13.50;69.00;;;;;;6225525;28;20033;-70
2023/03/09 02:08:05;;;;;;;10.88;4.70;;;13.50;69.10;;;;;;6242611;28;20033;-71
2023/03/09 02:11:11;;;;;;;9.90;4.53;;;13.60;69.00;;;;;;6232810;28;20112;-71
2023/03/09 02:14:15;;;;;;;13.63;3.88;;;13.60;69.00;;;;;;6249667;28;20044;-71
2023/03/09 02:17:19;;;;;;;8.48;4.07;;;13.60;68.90;;;;;;6249613;28;20489;-71
2023/03/09 02:20:38;;;;;;;8.80;4.13;;;13.60;68.90;;;;;;6221805;28;20120;-72
2023/03/09 02:24:08;;;;;;;8.02;4.05;;;13.70;69.00;;;;;;6226407;28;20021;-73
2023/03/09 02:27:20;;;;;;;8.43;4.18;;;13.70;69.10;;;;;;6225279;28;20482;-71
2023/03/09 02:30:24;;;;;;;6.47;3.47;;;13.70;69.00;;;;;;6225620;28;20248;-70
2023/03/09 02:33:28;;;;;;;5.25;2.58;;;13.70;68.90;;;;;;6225634;28;20033;-71
2023/03/09 02:36:31;;;;;;;8.30;3.35;;;13.70;68.80;;;;;;6225680;28;20444;-72
2023/03/09 02:39:44;;;;;;;10.07;3.33;;;13.80;68.70;;;;;;6225138;28;20076;-71
2023/03/09 02:42:47;;;;;;;6.45;3.33;;;13.80;68.70;;;;;;6225464;28;20028;-71
2023/03/09 02:45:49;;;;;;;7.15;3.47;;;13.80;68.60;;;;;;6225080;28;20033;-71
2023/03/09 02:48:51;;;;;;;6.90;4.00;;;13.70;68.50;;;;;;6224826;28;20120;-72
2023/03/09 02:51:52;;;;;;;9.27;3.60;;;13.70;68.60;;;;;;6225431;28;20038;-71
2023/03/09 02:54:54;;;;;;;5.93;3.42;;;13.70;68.60;;;;;;6225332;28;20045;-72
2023/03/09 02:57:55;;;;;;;8.77;3.92;;;13.60;68.60;;;;;;6225361;28;20044;-71
2023/03/09 03:00:56;;;;;;;6.40;3.80;;;13.60;68.60;;;;;;6245719;28;20077;-72
2023/03/09 03:03:58;;;;;;;12.88;4.15;;;13.60;68.60;;;;;;6250372;28;20024;-70
2023/03/09 03:06:59;;;;;;;8.95;4.50;;;13.50;68.60;;;;;;6252146;28;20147;-72
2023/03/09 03:10:00;;;;;;;7.25;3.95;;;13.50;68.60;;;;;;6249519;28;20064;-72
2023/03/09 03:13:01;;;;;;;8.02;3.90;;;13.40;69.40;;;;;;6249114;28;20056;-73
2023/03/09 03:16:03;;;;;;;7.95;3.90;;;13.40;68.60;;;;;;6248967;28;20033;-71
2023/03/09 03:19:04;;;;;;;9.30;3.00;;;13.30;68.70;;;;;;6232992;28;20037;-72
2023/03/09 03:22:09;;;;;;;8.23;3.35;;;13.30;68.70;;;;;;6187099;28;20041;-71
2023/03/09 03:25:12;;;;;;;12.45;2.80;;;13.30;68.60;;;;;;6201497;28;20208;-72
2023/03/09 03:28:16;;;;;;;7.22;3.50;;;13.20;68.60;;;;;;6216931;28;20081;-72
2023/03/09 03:31:19;;;;;;;9.20;4.10;;;13.20;69.50;;;;;;6200603;28;20204;-71
2023/03/09 03:34:21;;;;;;;11.27;4.45;;;13.10;68.70;;;;;;6202518;28;20030;-72
2023/03/09 03:37:23;;;;;;;6.72;4.05;;;13.10;68.80;;;;;;6211381;28;20029;-71
2023/03/09 03:40:26;;;;;;;6.90;4.32;;;13.30;68.90;;;;;;6228179;28;20040;-72
2023/03/09 03:43:29;;;;;;;7.38;4.38;;;13.00;68.80;;;;;;6228065;28;20026;-72
2023/03/09 03:46:31;;;;;;;9.65;4.55;;;13.00;68.90;;;;;;6228041;28;20033;-71
2023/03/09 03:49:32;;;;;;;11.07;4.22;;;13.00;68.70;;;;;;6228603;28;20037;-72
2023/03/09 03:52:36;;;;;;;8.23;3.60;;;13.00;68.70;;;;;;6228685;28;20106;-71
2023/03/09 03:55:37;;;;;;;7.72;3.85;;;12.90;68.70;;;;;;6212325;28;20030;-71
2023/03/09 03:58:38;;;;;;;13.27;3.70;;;12.90;68.70;;;;;;6245921;28;20060;-71
2023/03/09 04:01:40;;;;;;;11.68;4.30;;;12.90;68.70;;;;;;6246514;28;20083;-72
2023/03/09 04:04:43;;;;;;;9.07;4.00;;;12.90;68.70;;;;;;6244867;28;20123;-72
2023/03/09 04:07:46;;;;;;;8.30;3.85;;;12.80;68.70;;;;;;6252673;28;20039;-72
2023/03/09 04:10:47;;;;;;;11.48;4.75;;;12.80;68.60;;;;;;6236561;28;20039;-73
2023/03/09 04:13:51;;;;;;;10.65;4.32;;;12.80;68.80;;;;;;6270780;28;20044;-71
2023/03/09 04:16:54;;;;;;;13.07;5.32;;;12.80;68.90;;;;;;6252650;28;20442;-73
2023/03/09 04:19:55;;;;;;;16.90;5.30;;;12.70;68.80;;;;;;6207780;28;20096;-72
2023/03/09 04:22:56;;;;;;;9.23;4.85;;;12.70;68.80;;;;;;6219408;28;20096;-70
2023/03/09 04:26:02;;;;;;;10.70;5.40;;;12.90;69.10;;;;;;6202926;28;20037;-72
2023/03/09 04:29:32;;;;;;;9.75;5.65;;;12.70;69.00;;;;;;6168492;28;20046;-71
2023/03/09 04:32:33;;;;;;;9.07;5.15;;;12.70;68.90;;;;;;6169023;28;20101;-71
2023/03/09 04:35:39;;;;;;;9.90;5.10;;;12.60;68.90;;;;;;6193254;28;20026;-71
2023/03/09 04:38:45;;;;;;;13.13;5.32;;;12.70;69.00;;;;;;6161805;28;20567;-70
2023/03/09 04:41:48;;;;;;;10.82;4.75;;;12.60;68.90;;;;;;6178660;28;20036;-72
2023/03/09 04:44:49;;;;;;;12.43;5.45;;;12.70;69.00;;;;;;6192975;28;20041;-72
2023/03/09 04:47:50;;;;;;;14.32;5.28;;;12.70;69.00;;;;;;6192943;28;20045;-71
2023/03/09 04:50:52;;;;;;;15.15;6.32;;;12.60;69.00;;;;;;6176316;28;20160;-71
2023/03/09 04:53:53;;;;;;;8.95;4.55;;;12.50;69.10;;;;;;6176325;28;20114;-72
2023/03/09 04:56:57;;;;;;;12.50;5.20;;;12.50;69.20;;;;;;6175736;28;20046;-72
2023/03/09 05:00:00;;;;;;;13.45;4.75;;;12.50;69.30;;;;;;6184508;28;20042;-72
2023/03/09 05:03:04;;;;;;;13.20;6.20;;;12.50;69.30;;;;;;6184364;28;20029;-71
2023/03/09 05:06:06;;;;;;;15.10;5.57;;;12.40;69.30;;;;;;6233598;28;20133;-72
2023/03/09 05:09:09;;;;;;;12.20;5.22;;;12.40;69.40;;;;;;6234798;28;20064;-71
2023/03/09 05:12:12;;;;;;;9.60;4.72;;;12.50;69.40;;;;;;6250790;28;20064;-70
2023/03/09 05:15:15;;;;;;;10.25;5.00;;;12.50;69.40;;;;;;6234489;28;20078;-73
2023/03/09 05:18:16;;;;;;;9.45;4.72;;;12.50;69.30;;;;;;6244069;28;20668;-74
2023/03/09 05:21:18;;;;;;;9.43;4.65;;;12.50;69.40;;;;;;6229312;28;20729;-71
2023/03/09 05:24:21;;;;;;;12.02;4.75;;;12.50;69.30;;;;;;6229294;28;20103;-71
2023/03/09 05:27:22;;;;;;;10.38;4.82;;;12.50;69.30;;;;;;6226850;28;20406;-71
2023/03/09 05:30:24;;;;;;;8.23;4.53;;;12.50;69.60;;;;;;6226867;28;20105;-72
2023/03/09 05:33:25;;;;;;;10.63;5.30;;;12.50;69.20;;;;;;6228032;28;20044;-73
2023/03/09 05:36:27;;;;;;;11.98;4.63;;;12.50;69.10;;;;;;6243112;28;20009;-74
2023/03/09 05:39:34;;;;;;;11.27;4.90;;;12.40;69.00;;;;;;6217451;28;20128;-72
2023/03/09 05:42:36;;;;;;;13.70;5.28;;;12.40;69.00;;;;;;6221220;28;20332;-72
2023/03/09 05:45:37;;;;;;;15.23;5.32;;;12.30;68.90;;;;;;6202772;28;20436;-72
2023/03/09 05:48:39;;;;;;;10.02;5.05;;;12.30;69.00;;;;;;6215065;28;20454;-73
2023/03/09 05:51:40;;;;;;;10.07;4.00;;;12.20;68.90;;;;;;6225519;28;20029;-71
2023/03/09 05:54:42;;;;;;;12.57;3.90;;;12.20;68.80;;;;;;6225333;28;20343;-71
2023/03/09 05:57:47;;;;;;;5.18;3.15;;;12.10;68.80;;;;;;6225413;28;20033;-72
2023/03/09 06:00:49;;;;;;;7.93;4.03;;;12.10;68.70;;;;;;6225819;28;20022;-73
2023/03/09 06:03:51;;;;;;;9.55;4.95;;;12.10;68.60;;;;;;6243324;28;20044;-71
2023/03/09 06:06:53;;;;;;;8.00;4.35;;;12.10;68.70;;;;;;6209537;28;20036;-72
2023/03/09 06:09:59;;;;;;;14.18;5.07;;;12.10;68.60;;;;;;6225537;28;20068;-74
2023/03/09 06:13:02;;;;;;;12.48;4.60;;;12.10;68.60;;;;;;6225406;28;20029;-73
2023/03/09 06:16:08;;;;;;;7.72;4.28;;;12.10;68.60;;;;;;6225577;28;20064;-72
2023/03/09 06:19:11;;;;;;;11.95;4.05;;;12.10;68.60;;;;;;6216501;28;20467;-71
2023/03/09 06:22:13;;;;;;;9.90;4.75;;;12.00;68.50;;;;;;6200658;28;20022;-73
2023/03/09 06:25:15;;;;;;;24.48;5.40;;;12.10;68.50;;;;;;6217625;28;20022;-72
2023/03/09 06:28:17;;;;;;;15.27;4.90;;;12.10;68.50;;;;;;6224578;28;20055;-71
2023/03/09 06:31:19;;;;;;;10.70;4.82;;;12.10;68.50;;;;;;6225337;28;20025;-74
2023/03/09 06:34:24;;;;;;;9.50;4.63;;;12.20;68.50;;;;;;6225293;28;20068;-73
2023/03/09 06:37:25;;;;;;;8.20;4.63;;;12.20;68.40;;;;;;6225721;28;20830;-73
2023/03/09 06:40:28;;;;;;;15.55;4.60;;;12.20;68.50;;;;;;6225243;28;20022;-72
2023/03/09 06:43:29;;;;;;;11.98;5.68;;;12.20;68.40;;;;;;6225816;28;20116;-73
2023/03/09 06:46:30;;;;;;;12.13;5.00;;;12.20;68.40;;;;;;6226141;28;20548;-72
2023/03/09 06:49:32;;;;;;;10.95;4.95;;;12.20;68.40;;;;;;6225519;28;20109;-71
2023/03/09 06:52:38;;;;;;;10.27;4.95;;;12.20;68.40;;;;;;6235532;28;20477;-71
2023/03/09 06:55:41;;;;;;;16.02;5.00;;;12.20;68.40;;;;;;6234164;28;20405;-74
2023/03/09 06:58:42;;;;;;;11.57;4.80;;;12.20;68.30;;;;;;6233415;28;20025;-73
2023/03/09 07:01:43;;;;;;;13.82;4.35;;;12.20;68.30;;;;;;6234132;28;20029;-72
2023/03/09 07:04:45;;;;;;;14.38;4.93;;;12.30;68.30;;;;;;6249125;28;20064;-72
2023/03/09 07:07:48;;;;;;;15.98;4.82;;;12.30;68.20;;;;;;6251162;28;20039;-74
2023/03/09 07:10:49;;;;;;;11.15;4.97;;;12.30;68.20;;;;;;6271323;28;20124;-72
2023/03/09 07:13:50;;;;;;;11.90;5.03;;;12.40;68.10;;;;;;6253575;28;20044;-73
2023/03/09 07:16:55;;;;;;;15.50;5.55;;;12.40;67.90;;;;;;6271726;28;20041;-73
2023/03/09 07:19:57;;;;;;;11.57;4.85;;;12.40;67.90;;;;;;6250893;28;20102;-73
2023/03/09 07:22:58;;;;;;;10.05;5.78;;;12.50;67.90;;;;;;6229152;28;20132;-73
2023/03/09 07:26:01;;;;;;;14.45;5.40;;;12.50;67.80;;;;;;6247506;28;20049;-73
2023/03/09 07:29:02;;;;;;;10.38;4.60;;;12.60;67.70;;;;;;6229042;28;20071;-73
2023/03/09 07:32:04;;;;;;;11.75;4.60;;;12.60;67.70;;;;;;6246917;28;20506;-74
2023/03/09 07:35:05;;;;;;;15.07;4.80;;;12.70;67.60;;;;;;6247343;28;20078;-73
2023/03/09 07:38:07;;;;;;;10.90;5.22;;;12.70;67.40;;;;;;6246653;28;20390;-72
2023/03/09 07:41:08;;;;;;;10.88;4.78;;;12.80;67.30;;;;;;6247679;28;20021;-73
2023/03/09 07:44:09;;;;;;;10.10;4.75;;;12.80;67.20;;;;;;6248496;28;20030;-73
2023/03/09 07:47:10;;;;;;;6.97;3.90;;;12.80;67.20;;;;;;6228821;28;20036;-73
2023/03/09 07:50:11;;;;;;;11.02;3.95;;;12.80;67.10;;;;;;6231658;28;20033;-74
2023/03/09 07:53:12;;;;;;;9.18;4.53;;;12.90;67.20;;;;;;6270818;28;20375;-72
2023/03/09 07:56:13;;;;;;;10.48;6.00;;;12.90;67.10;;;;;;6252956;28;20458;-71
2023/03/09 07:59:15;;;;;;;11.77;5.35;;;13.00;67.00;;;;;;6252511;28;20029;-72
2023/03/09 08:02:16;;;;;;;7.97;4.90;;;13.10;66.90;;;;;;6270403;28;20025;-72
2023/03/09 08:05:18;;;;;;;12.20;5.22;;;13.20;66.80;;;;;;6257615;28;20043;-72
2023/03/09 08:08:19;;;;;;;14.75;6.40;;;13.30;66.70;;;;;;6261137;28;20032;-73
2023/03/09 08:11:20;;;;;;;15.63;5.30;;;13.40;66.50;;;;;;6292807;28;20027;-74
2023/03/09 08:14:21;;;;;;;13.63;4.82;;;13.50;66.30;;;;;;6277392;28;20040;-73
2023/03/09 08:17:22;;;;;;;7.65;4.18;;;13.60;66.10;;;;;;6271682;28;20059;-72
2023/03/09 08:20:23;;;;;;;6.65;3.47;;;13.70;65.40;;;;;;6245994;28;20036;-71
2023/03/09 08:23:24;;;;;;;5.05;3.05;;;13.90;65.10;;;;;;6245470;28;20037;-73
2023/03/09 08:26:25;;;;;;;10.93;3.42;;;14.00;64.80;;;;;;6227268;28;20021;-71
2023/03/09 08:29:26;;;;;;;6.38;3.05;;;14.10;64.30;;;;;;6227164;28;20414;-71
2023/03/09 08:32:27;;;;;;;8.07;3.10;;;14.30;63.80;;;;;;6245432;28;20776;-72
2023/03/09 08:35:32;;;;;;;4.55;2.95;;;14.40;63.40;;;;;;6245786;28;20434;-71
2023/03/09 08:38:33;;;;;;;6.55;2.85;;;14.50;62.90;;;;;;6227355;28;20033;-71
2023/03/09 08:41:34;;;;;;;6.65;2.45;;;14.70;62.40;;;;;;6227436;28;20041;-73
2023/03/09 08:44:35;;;;;;;4.05;2.25;;;14.90;61.90;;;;;;6232567;28;20029;-73
2023/03/09 08:47:36;;;;;;;3.38;2.08;;;15.00;61.30;;;;;;6264604;28;20022;-73
2023/03/09 08:50:38;;;;;;;7.65;2.67;;;15.10;60.70;;;;;;6227128;28;20084;-72
2023/03/09 08:53:39;;;;;;;6.28;2.10;;;15.30;60.00;;;;;;6245446;28;20120;-72
2023/03/09 08:56:41;;;;;;;5.13;2.38;;;15.40;59.30;;;;;;6226669;28;20132;-70
2023/03/09 08:59:42;;;;;;;5.32;2.38;;;15.50;58.80;;;;;;6244051;28;20033;-72
2023/03/09 09:02:43;;;;;;;10.52;2.70;;;15.60;58.50;;;;;;6226435;28;20026;-72
2023/03/09 09:05:44;;;;;;;5.07;2.33;;;15.70;57.90;;;;;;6226522;28;20036;-73
2023/03/09 09:08:45;;;;;;;2.80;1.52;;;15.70;57.50;;;;;;6243612;28;20472;-72
2023/03/09 09:11:46;;;;;;;5.57;1.95;;;15.80;57.20;;;;;;6243880;28;20048;-71
2023/03/09 09:14:47;;;;;;;8.98;2.05;;;15.90;57.10;;;;;;6227511;28;20033;-74
2023/03/09 09:17:49;;;;;;;5.35;1.95;;;16.00;56.70;;;;;;6226952;28;20128;-74
2023/03/09 09:20:50;;;;;;;4.05;2.30;;;16.20;56.80;;;;;;6243990;28;20189;-72
2023/03/09 09:23:51;;;;;;;2.42;1.67;;;16.30;56.50;;;;;;6242597;28;20516;-72
2023/03/09 09:26:55;;;;;;;7.97;2.30;;;16.50;56.30;;;;;;6243274;28;20034;-74
2023/03/09 09:29:56;;;;;;;8.27;2.42;;;16.60;55.90;;;;;;6225009;28;20037;-73
2023/03/09 09:32:58;;;;;;;6.03;2.50;;;16.80;55.40;;;;;;6243318;28;20030;-72
2023/03/09 09:36:11;;;;;;;8.02;2.10;;;16.80;54.90;;;;;;6225425;28;20038;-72
2023/03/09 09:39:15;;;;;;;6.55;2.67;;;16.80;54.60;;;;;;6242346;28;20029;-73
2023/03/09 09:42:29;;;;;;;5.43;2.78;;;17.00;54.60;;;;;;6242407;28;20335;-72
2023/03/09 09:45:33;;;;;;;7.00;3.45;;;17.10;54.40;;;;;;6243215;28;20109;-72
2023/03/09 09:48:36;;;;;;;7.85;4.20;;;17.40;54.40;;;;;;6195483;28;20040;-74
2023/03/09 09:52:09;;;;;;;10.25;3.30;;;17.20;54.20;;;;;;6218283;28;20475;-72
2023/03/09 09:55:32;;;;;;;10.98;3.75;;;17.20;54.30;;;;;;6200334;28;20534;-72
2023/03/09 09:58:46;;;;;;;9.50;3.75;;;17.10;54.20;;;;;;6217776;28;20125;-72
2023/03/09 10:02:08;;;;;;;5.80;2.97;;;17.10;54.20;;;;;;6218186;28;20046;-72
2023/03/09 10:05:28;;;;;;;12.70;3.45;;;17.10;54.00;;;;;;6218676;28;20109;-72
2023/03/09 10:08:48;;;;;;;13.85;3.67;;;17.00;53.80;;;;;;6218517;28;20042;-71
2023/03/09 10:12:02;;;;;;;19.95;4.32;;;17.00;53.60;;;;;;6232640;28;20025;-74
2023/03/09 10:15:24;;;;;;;6.88;2.88;;;17.00;53.80;;;;;;6243571;28;20034;-72
2023/03/09 10:18:33;;;;;;;14.02;3.78;;;17.10;53.60;;;;;;6225076;28;20076;-73
2023/03/09 10:21:51;;;;;;;12.30;4.07;;;17.20;53.50;;;;;;6208705;28;20037;-72
2023/03/09 10:24:54;;;;;;;7.53;2.92;;;17.30;53.30;;;;;;6243009;28;20223;-72
2023/03/09 10:28:16;;;;;;;9.38;3.28;;;17.40;53.10;;;;;;6242467;28;20037;-73
2023/03/09 10:31:33;;;;;;;7.72;3.83;;;17.40;52.90;;;;;;6224938;28;20462;-71
2023/03/09 10:34:47;;;;;;;8.80;3.53;;;17.50;52.70;;;;;;6224285;28;20134;-74
2023/03/09 10:37:50;;;;;;;10.85;4.38;;;17.60;52.40;;;;;;6242706;28;20397;-73
2023/03/09 10:40:56;;;;;;;13.20;4.30;;;17.60;52.30;;;;;;6244379;28;20044;-74
2023/03/09 10:43:59;;;;;;;15.43;5.07;;;17.70;52.40;;;;;;6245730;28;20017;-73
2023/03/09 10:47:01;;;;;;;14.48;4.32;;;17.80;52.30;;;;;;6265439;28;20036;-72
2023/03/09 10:50:11;;;;;;;23.73;5.18;;;17.90;52.20;;;;;;6248718;28;20371;-72
2023/03/09 10:53:38;;;;;;;11.45;4.18;;;18.00;52.20;;;;;;6246231;28;20048;-72
2023/03/09 10:56:43;;;;;;;11.23;4.45;;;18.10;52.10;;;;;;6246131;28;20036;-73
2023/03/09 11:00:06;;;;;;;13.35;3.97;;;18.30;51.70;;;;;;6245453;28;20378;-73
2023/03/09 11:03:20;;;;;;;16.42;4.57;;;18.30;51.50;;;;;;6247015;28;20370;-73
2023/03/09 11:06:37;;;;;;;18.48;4.72;;;18.50;51.40;;;;;;6246489;28;20030;-73
2023/03/09 11:09:44;;;;;;;17.50;4.10;;;18.60;51.20;;;;;;6228818;28;20419;-72
2023/03/09 11:12:47;;;;;;;14.38;3.28;;;18.60;51.00;;;;;;6247513;28;20036;-73
2023/03/09 11:16:05;;;;;;;8.63;3.10;;;18.50;50.70;;;;;;6247484;28;20366;-72
2023/03/09 11:19:12;;;;;;;13.05;3.78;;;18.50;50.70;;;;;;6224476;28;20060;-73
2023/03/09 11:22:14;;;;;;;6.25;3.13;;;18.50;50.60;;;;;;6222746;28;20022;-72
2023/03/09 11:25:47;;;;;;;7.00;3.08;;;18.70;50.50;;;;;;6204236;28;20062;-74
2023/03/09 11:28:48;;;;;;;16.45;3.50;;;18.90;50.20;;;;;;6221216;28;20034;-73
2023/03/09 11:31:49;;;;;;;9.43;3.40;;;19.00;49.50;;;;;;6203956;28;20044;-73
2023/03/09 11:34:51;;;;;;;10.15;3.35;;;19.00;48.90;;;;;;6221871;28;20037;-74
2023/03/09 11:37:56;;;;;;;11.82;2.88;;;19.10;48.70;;;;;;6244594;28;20538;-73
2023/03/09 11:41:14;;;;;;;10.63;3.45;;;19.20;48.60;;;;;;6271952;28;20417;-72
2023/03/09 11:44:38;;;;;;;14.75;3.38;;;19.50;48.20;;;;;;6271846;28;20102;-74
2023/03/09 11:48:02;;;;;;;5.70;3.15;;;19.80;47.70;;;;;;6265350;28;20029;-72
2023/03/09 11:51:11;;;;;;;8.68;3.80;;;19.90;47.30;;;;;;6228615;28;20044;-71
2023/03/09 11:54:36;;;;;;;8.40;3.35;;;19.90;47.30;;;;;;6226297;28;20046;-73
2023/03/09 11:57:39;;;;;;;8.02;3.13;;;19.80;47.20;;;;;;6227590;28;20188;-74
2023/03/09 12:00:45;;;;;;;8.80;2.72;;;20.00;46.80;;;;;;6245699;28;20769;-73
2023/03/09 12:03:58;;;;;;;8.23;3.33;;;20.30;45.70;;;;;;6244627;28;20056;-75
2023/03/09 12:07:17;;;;;;;12.57;3.05;;;20.40;45.30;;;;;;6228234;28;20108;-75
2023/03/09 12:10:42;;;;;;;8.73;2.80;;;20.60;45.20;;;;;;6227986;28;20037;-75
2023/03/09 12:14:15;;;;;;;10.02;3.63;;;21.10;44.40;;;;;;6214137;28;20337;-74
2023/03/09 12:17:21;;;;;;;6.82;3.40;;;21.60;43.50;;;;;;6146337;29;20063;-74
2023/03/09 12:20:28;;;;;;;12.30;3.40;;;22.30;42.70;;;;;;6144780;29;20135;-73
2023/03/09 12:23:35;;;;;;;6.70;2.78;;;22.70;41.90;;;;;;6144761;29;20155;-72
2023/03/09 12:26:36;;;;;;;7.80;3.45;;;23.00;41.50;;;;;;6144210;29;20603;-73
2023/03/09 12:29:52;;;;;;;5.88;3.40;;;23.30;41.00;;;;;;6144286;29;20073;-71
2023/03/09 12:32:56;;;;;;;12.52;2.78;;;23.80;40.20;;;;;;6128556;29;20051;-75
2023/03/09 12:35:58;;;;;;;7.15;2.50;;;24.40;39.40;;;;;;6145040;29;20142;-73
2023/03/09 12:39:33;;;;;;;9.93;2.08;;;24.80;38.60;;;;;;6143925;29;20118;-74
2023/03/09 12:42:39;;;;;;;6.28;1.83;;;25.20;37.40;;;;;;6144068;29;20047;-74
2023/03/09 12:45:41;;;;;;;9.07;2.47;;;25.30;37.10;;;;;;6128231;29;20066;-73
2023/03/09 12:48:44;;;;;;;5.07;2.38;;;25.50;36.50;;;;;;6127756;29;20557;-72
2023/03/09 12:51:51;;;;;;;4.40;2.30;;;25.60;36.50;;;;;;6150910;28;20138;-72
2023/03/09 12:55:13;;;;;;;6.43;2.40;;;25.70;36.30;;;;;;6226258;28;20029;-72
2023/03/09 12:58:17;;;;;;;8.63;2.05;;;26.10;35.60;;;;;;6225537;28;20073;-72
2023/03/09 13:01:18;;;;;;;7.63;2.28;;;26.30;35.00;;;;;;6225679;28;20025;-73
2023/03/09 13:04:23;;;;;;;14.98;2.58;;;26.50;34.60;;;;;;6225314;28;20049;-72
2023/03/09 13:07:25;;;;;;;5.53;1.83;;;26.70;33.80;;;;;;6243268;28;20033;-73
2023/03/09 13:10:33;;;;;;;11.13;2.42;;;26.70;33.10;;;;;;6244037;28;20517;-73
2023/03/09 13:13:40;;;;;;;7.63;1.95;;;26.70;32.80;;;;;;6226302;28;20025;-72
2023/03/09 13:16:46;;;;;;;4.15;2.00;;;26.40;33.10;;;;;;6244457;28;20439;-71
2023/03/09 13:19:55;;;;;;;8.07;1.60;;;25.90;33.70;;;;;;6243925;28;20196;-73
2023/03/09 13:22:57;;;;;;;10.90;2.30;;;25.40;34.10;;;;;;6225935;28;20074;-74
2023/03/09 13:25:58;;;;;;;4.70;1.58;;;24.80;34.10;;;;;;6226606;28;20049;-72
2023/03/09 13:28:59;;;;;;;6.30;1.50;;;24.20;34.60;;;;;;6245735;28;20057;-73
2023/03/09 13:32:03;;;;;;;4.22;1.60;;;23.80;35.10;;;;;;6239507;28;20123;-72
2023/03/09 13:35:32;;;;;;;8.60;1.90;;;23.40;35.50;;;;;;6263376;28;20088;-72
2023/03/09 13:38:37;;;;;;;3.50;1.38;;;23.00;36.10;;;;;;6235699;28;20045;-73
2023/03/09 13:41:38;;;;;;;7.60;1.40;;;22.80;36.60;;;;;;6227304;28;20530;-73
2023/03/09 13:44:46;;;;;;;5.25;1.80;;;22.60;36.70;;;;;;6244355;28;20025;-72
2023/03/09 13:47:54;;;;;;;4.88;1.20;;;22.80;36.90;;;;;;6227597;28;20033;-71
2023/03/09 13:50:55;;;;;;;5.85;1.38;;;22.40;36.70;;;;;;6225990;28;20047;-73
2023/03/09 13:53:56;;;;;;;5.72;1.33;;;22.30;37.00;;;;;;6225006;28;20356;-73
2023/03/09 13:57:16;;;;;;;6.25;1.50;;;22.20;37.20;;;;;;6225427;28;20086;-73
2023/03/09 14:00:23;;;;;;;2.30;1.30;;;22.10;37.40;;;;;;6242784;28;20308;-73
2023/03/09 14:03:28;;;;;;;2.20;1.27;;;22.10;37.40;;;;;;6242670;28;20116;-72
2023/03/09 14:06:35;;;;;;;5.18;1.65;;;22.10;37.40;;;;;;6208550;28;20236;-72
2023/03/09 14:09:37;;;;;;;2.88;1.33;;;22.10;36.80;;;;;;6242455;28;20029;-72
2023/03/09 14:12:38;;;;;;;7.15;1.60;;;22.10;37.00;;;;;;6242519;28;20033;-73
2023/03/09 14:15:40;;;;;;;6.80;1.35;;;22.00;37.00;;;;;;6242473;28;20195;-73
2023/03/09 14:18:49;;;;;;;3.30;0.80;;;21.90;37.10;;;;;;6241581;28;20039;-73
2023/03/09 14:21:52;;;;;;;4.05;1.02;;;22.00;37.40;;;;;;6224946;28;20029;-70
2023/03/09 14:24:53;;;;;;;1.40;1.10;;;22.00;37.20;;;;;;6242337;28;20028;-72
2023/03/09 14:27:55;;;;;;;5.78;1.70;;;22.00;37.20;;;;;;6241885;28;20033;-73
2023/03/09 14:31:07;;;;;;;2.15;1.33;;;22.10;37.30;;;;;;6258195;28;20441;-73
2023/03/09 14:34:19;;;;;;;6.65;1.73;;;22.10;37.20;;;;;;6266946;28;20037;-74
2023/03/09 14:37:23;;;;;;;1.65;1.20;;;22.10;37.30;;;;;;6266766;28;20063;-74
2023/03/09 14:40:28;;;;;;;3.00;1.17;;;22.10;36.90;;;;;;6266782;28;20021;-73
2023/03/09 14:43:35;;;;;;;0.85;0.60;;;22.10;36.40;;;;;;6266658;28;20025;-73
2023/03/09 14:46:36;;;;;;;4.35;1.10;;;22.10;36.00;;;;;;6266619;28;20032;-71
2023/03/09 14:49:37;;;;;;;1.70;0.73;;;22.20;35.90;;;;;;6226249;28;20404;-74
2023/03/09 14:52:39;;;;;;;1.75;1.05;;;22.20;35.40;;;;;;6241360;28;20064;-73
2023/03/09 14:55:40;;;;;;;3.35;0.93;;;22.20;34.50;;;;;;6223461;28;20034;-73
2023/03/09 14:58:43;;;;;;;2.58;0.70;;;22.10;34.50;;;;;;6223362;28;20505;-73
2023/03/09 15:01:54;;;;;;;4.75;1.75;;;22.10;34.50;;;;;;6241273;28;20037;-73
2023/03/09 15:04:55;;;;;;;1.63;0.90;;;22.00;34.60;;;;;;6241437;28;20030;-73
2023/03/09 15:07:56;;;;;;;1.90;0.82;;;22.10;34.40;;;;;;6240954;28;20137;-73
2023/03/09 15:10:57;;;;;;;3.58;1.00;;;22.10;34.20;;;;;;6223392;28;20026;-72
2023/03/09 15:14:03;;;;;;;2.90;1.20;;;22.00;34.00;;;;;;6223995;28;20064;-73
2023/03/09 15:17:06;;;;;;;2.78;0.95;;;22.10;34.00;;;;;;6241438;28;20040;-73
2023/03/09 15:20:13;;;;;;;3.95;1.13;;;22.20;34.10;;;;;;6241341;28;20030;-73
2023/03/09 15:23:15;;;;;;;3.83;0.97;;;22.20;33.80;;;;;;6251764;28;20025;-73
2023/03/09 15:26:16;;;;;;;2.65;1.35;;;22.20;33.60;;;;;;6256007;28;20348;-73
2023/03/09 15:29:18;;;;;;;2.75;0.65;;;22.20;33.40;;;;;;6228841;28;20030;-72
2023/03/09 15:32:19;;;;;;;2.20;0.70;;;22.20;33.40;;;;;;6247752;28;20160;-74
2023/03/09 15:35:21;;;;;;;5.60;0.82;;;22.20;33.20;;;;;;6247288;28;20167;-73
2023/03/09 15:38:22;;;;;;;5.50;0.95;;;22.20;33.00;;;;;;6245259;28;20040;-75
2023/03/09 15:41:23;;;;;;;0.70;0.60;;;22.20;33.00;;;;;;6245368;28;20425;-72
2023/03/09 15:44:24;;;;;;;5.18;1.08;;;22.20;32.70;;;;;;6245222;28;20025;-73
2023/03/09 15:47:25;;;;;;;3.65;0.85;;;22.20;32.70;;;;;;6241567;28;20028;-72
2023/03/09 15:50:27;;;;;;;1.58;0.90;;;22.10;32.70;;;;;;6203104;28;20033;-73
2023/03/09 15:53:29;;;;;;;6.72;1.00;;;22.10;32.70;;;;;;6203386;28;20144;-72
2023/03/09 15:56:31;;;;;;;11.10;1.00;;;22.10;32.60;;;;;;6231885;28;20419;-74
2023/03/09 15:59:32;;;;;;;8.13;1.00;;;22.10;32.90;;;;;;6245218;28;20392;-71